createdAt,value
2024-03-11T00:02:02.651Z,5.45
2024-03-11T00:04:30.048Z,5.63
2024-03-11T00:06:58.891Z,5.00
2024-03-11T00:09:34.506Z,5.60
2024-03-11T00:12:01.703Z,4.57
2024-03-11T00:14:31.693Z,5.68
2024-03-11T00:17:03.787Z,5.13
2024-03-11T00:19:30.948Z,5.43
2024-03-11T00:21:58.030Z,5.05
2024-03-11T00:24:24.833Z,5.63
2024-03-11T00:26:51.986Z,4.43
2024-03-11T00:29:18.989Z,5.45
2024-03-11T00:31:45.978Z,5.10
2024-03-11T00:34:13.059Z,5.05
2024-03-11T00:36:40.091Z,5.47
2024-03-11T00:39:06.840Z,5.10
2024-03-11T00:41:33.714Z,4.20
2024-03-11T00:44:01.032Z,4.80
2024-03-11T00:46:27.748Z,4.80
2024-03-11T00:48:55.470Z,5.03
2024-03-11T00:51:22.775Z,5.15
2024-03-11T00:53:49.712Z,5.10
2024-03-11T00:56:16.476Z,6.07
2024-03-11T00:58:43.161Z,5.35
2024-03-11T01:01:11.567Z,5.90
2024-03-11T01:03:38.441Z,4.93
2024-03-11T01:06:09.079Z,5.25
2024-03-11T01:08:36.494Z,5.50
2024-03-11T01:11:03.327Z,5.25
2024-03-11T01:13:30.048Z,5.05
2024-03-11T01:15:56.784Z,5.63
2024-03-11T01:18:25.295Z,5.43
2024-03-11T01:20:56.200Z,4.80
2024-03-11T01:23:23.935Z,5.10
2024-03-11T01:25:52.191Z,5.50
2024-03-11T01:28:18.926Z,5.35
2024-03-11T01:30:45.877Z,4.90
2024-03-11T01:33:13.120Z,5.70
2024-03-11T01:35:42.467Z,5.18
2024-03-11T01:38:12.164Z,5.45
2024-03-11T01:40:39.078Z,5.05
2024-03-11T01:43:05.767Z,4.60
2024-03-11T01:45:34.191Z,4.77
2024-03-11T01:48:01.233Z,4.35
2024-03-11T01:50:28.084Z,5.18
2024-03-11T01:52:58.796Z,4.68
2024-03-11T01:55:26.332Z,5.20
2024-03-11T01:57:53.427Z,4.53
2024-03-11T02:00:23.624Z,4.15
2024-03-11T02:02:54.666Z,4.53
2024-03-11T02:05:22.375Z,4.80
2024-03-11T02:08:09.575Z,4.35
2024-03-11T02:10:37.844Z,4.37
2024-03-11T02:13:05.574Z,4.55
2024-03-11T02:15:32.557Z,4.88
2024-03-11T02:18:00.062Z,5.30
2024-03-11T02:20:28.411Z,5.28
2024-03-11T02:22:56.503Z,4.73
2024-03-11T02:25:28.833Z,4.82
2024-03-11T02:27:56.889Z,4.55
2024-03-11T02:30:24.149Z,5.28
2024-03-11T02:32:51.328Z,4.07
2024-03-11T02:35:18.335Z,5.43
2024-03-11T02:37:45.761Z,4.63
2024-03-11T02:40:14.312Z,4.70
2024-03-11T02:42:41.444Z,4.65
2024-03-11T02:45:12.837Z,4.82
2024-03-11T02:47:39.800Z,4.20
2024-03-11T02:50:07.408Z,4.63
2024-03-11T02:52:34.380Z,4.35
2024-03-11T02:55:01.313Z,4.60
2024-03-11T02:57:29.236Z,5.28
2024-03-11T02:59:55.988Z,4.33
2024-03-11T03:02:24.307Z,4.68
2024-03-11T03:04:51.261Z,4.40
2024-03-11T03:07:18.384Z,3.83
2024-03-11T03:09:45.093Z,4.20
2024-03-11T03:12:12.326Z,4.10
2024-03-11T03:14:42.318Z,4.00
2024-03-11T03:17:09.105Z,4.70
2024-03-11T03:19:38.516Z,4.47
2024-03-11T03:22:05.483Z,4.53
2024-03-11T03:24:32.945Z,4.37
2024-03-11T03:26:59.839Z,3.95
2024-03-11T03:29:27.629Z,4.45
2024-03-11T03:31:54.478Z,4.38
2024-03-11T03:34:21.141Z,4.85
2024-03-11T03:36:48.203Z,4.13
2024-03-11T03:39:15.120Z,4.43
2024-03-11T03:41:41.863Z,4.55
2024-03-11T03:44:08.662Z,4.32
2024-03-11T03:46:36.610Z,4.25
2024-03-11T03:49:03.365Z,4.60
2024-03-11T03:51:30.061Z,4.00
2024-03-11T03:53:58.441Z,3.92
2024-03-11T03:56:27.011Z,3.97
2024-03-11T03:58:54.036Z,3.95
2024-03-11T04:01:21.111Z,4.17
2024-03-11T04:03:47.877Z,4.13
2024-03-11T04:06:15.039Z,4.53
2024-03-11T04:08:42.142Z,3.80
2024-03-11T04:11:09.006Z,3.78
2024-03-11T04:13:38.865Z,4.53
2024-03-11T04:16:07.594Z,3.70
2024-03-11T04:18:34.472Z,4.13
2024-03-11T04:21:01.360Z,4.30
2024-03-11T04:23:28.978Z,4.03
2024-03-11T04:25:56.078Z,4.33
2024-03-11T04:28:22.845Z,4.03
2024-03-11T04:30:50.122Z,4.22
2024-03-11T04:33:18.513Z,4.45
2024-03-11T04:35:45.786Z,4.85
2024-03-11T04:38:16.406Z,4.20
2024-03-11T04:40:45.107Z,3.85
2024-03-11T04:43:12.039Z,5.20
2024-03-11T04:45:39.128Z,4.38
2024-03-11T04:48:06.739Z,4.20
2024-03-11T04:50:37.427Z,4.47
2024-03-11T04:53:07.022Z,4.65
2024-03-11T04:55:34.950Z,4.00
2024-03-11T04:58:01.798Z,4.90
2024-03-11T05:00:29.217Z,4.28
2024-03-11T05:02:56.436Z,3.70
2024-03-11T05:05:23.193Z,4.03
2024-03-11T05:07:52.698Z,4.72
2024-03-11T05:10:19.489Z,4.40
2024-03-11T05:12:48.821Z,4.88
2024-03-11T05:15:18.303Z,4.43
2024-03-11T05:17:45.896Z,4.50
2024-03-11T05:20:15.940Z,4.43
2024-03-11T05:22:43.524Z,4.57
2024-03-11T05:25:13.268Z,4.47
2024-03-11T05:27:40.233Z,4.70
2024-03-11T05:30:07.886Z,4.30
2024-03-11T05:32:35.438Z,4.75
2024-03-11T05:35:03.153Z,3.97
2024-03-11T05:37:29.968Z,4.50
2024-03-11T05:39:56.759Z,4.03
2024-03-11T05:42:23.407Z,4.60
2024-03-11T05:44:51.023Z,3.83
2024-03-11T05:47:17.724Z,4.50
2024-03-11T05:49:44.792Z,5.00
2024-03-11T05:52:11.548Z,4.53
2024-03-11T05:54:39.586Z,4.65
2024-03-11T05:57:06.998Z,5.05
2024-03-11T05:59:33.896Z,4.95
2024-03-11T06:02:00.826Z,5.20
2024-03-11T06:04:27.529Z,4.83
2024-03-11T06:06:54.554Z,4.95
2024-03-11T06:09:21.269Z,5.25
2024-03-11T06:11:49.955Z,5.63
2024-03-11T06:14:17.326Z,5.72
2024-03-11T06:16:44.365Z,5.07
2024-03-11T06:19:12.275Z,5.03
2024-03-11T06:21:39.222Z,5.13
2024-03-11T06:24:06.991Z,4.53
2024-03-11T06:26:37.275Z,5.25
2024-03-11T06:29:04.699Z,4.37
2024-03-11T06:31:31.752Z,5.97
2024-03-11T06:33:58.562Z,5.65
2024-03-11T06:36:25.245Z,5.00
2024-03-11T06:38:54.508Z,5.32
2024-03-11T06:41:21.288Z,5.00
2024-03-11T06:43:47.976Z,4.65
2024-03-11T06:46:15.075Z,5.00
2024-03-11T06:48:41.961Z,5.45
2024-03-11T06:51:09.309Z,5.55
2024-03-11T06:53:36.375Z,5.30
2024-03-11T06:56:08.036Z,5.32
2024-03-11T06:58:35.217Z,5.30
2024-03-11T07:01:01.952Z,5.45
2024-03-11T07:03:31.239Z,5.43
2024-03-11T07:06:01.070Z,4.90
2024-03-11T07:08:28.295Z,5.63
2024-03-11T07:10:55.385Z,5.38
2024-03-11T07:13:22.306Z,4.95
2024-03-11T07:15:49.055Z,4.50
2024-03-11T07:18:18.784Z,4.97
2024-03-11T07:20:46.373Z,5.03
2024-03-11T07:23:13.443Z,5.32
2024-03-11T07:25:40.529Z,5.72
2024-03-11T07:28:07.720Z,5.45
2024-03-11T07:30:34.695Z,5.90
2024-03-11T07:33:05.925Z,5.45
2024-03-11T07:35:35.282Z,5.97
2024-03-11T07:38:01.992Z,5.50
2024-03-11T07:40:29.213Z,5.45
2024-03-11T07:42:58.978Z,4.53
2024-03-11T07:45:25.926Z,5.53
2024-03-11T07:47:54.686Z,5.03
2024-03-11T07:50:24.709Z,5.85
2024-03-11T07:52:51.688Z,6.43
2024-03-11T07:55:23.846Z,6.13
2024-03-11T07:57:53.392Z,6.05
2024-03-11T08:00:22.004Z,5.65
2024-03-11T08:02:49.212Z,5.97
2024-03-11T08:05:16.466Z,5.78
2024-03-11T08:07:46.662Z,5.53
2024-03-11T08:10:13.786Z,5.35
2024-03-11T08:12:43.102Z,6.05
2024-03-11T08:15:16.551Z,6.40
2024-03-11T08:17:44.509Z,6.70
2024-03-11T08:20:17.139Z,6.00
2024-03-11T08:22:48.667Z,5.97
2024-03-11T08:25:16.356Z,6.00
2024-03-11T08:27:43.152Z,5.80
2024-03-11T08:30:13.072Z,5.30
2024-03-11T08:32:42.611Z,4.90
2024-03-11T08:35:09.592Z,6.35
2024-03-11T08:37:36.338Z,6.82
2024-03-11T08:40:05.718Z,6.63
2024-03-11T08:42:32.715Z,5.68
2024-03-11T08:44:59.526Z,5.90
2024-03-11T08:47:28.460Z,5.95
2024-03-11T08:49:55.299Z,6.85
2024-03-11T08:52:22.059Z,6.72
2024-03-11T08:54:51.822Z,5.80
2024-03-11T08:57:18.657Z,6.67
2024-03-11T08:59:46.543Z,7.03
2024-03-11T09:02:15.696Z,6.75
2024-03-11T09:04:48.726Z,6.25
2024-03-11T09:07:17.302Z,6.05
2024-03-11T09:09:44.255Z,4.90
2024-03-11T09:12:12.529Z,6.90
2024-03-11T09:14:39.403Z,6.60
2024-03-11T09:17:06.752Z,5.88
2024-03-11T09:19:34.044Z,5.68
2024-03-11T09:22:03.822Z,6.00
2024-03-11T09:24:30.558Z,6.82
2024-03-11T09:26:57.271Z,7.28
2024-03-11T09:29:24.025Z,5.80
2024-03-11T09:31:50.707Z,6.88
2024-03-11T09:34:18.434Z,6.87
2024-03-11T09:36:45.485Z,6.72
2024-03-11T09:39:15.323Z,6.93
2024-03-11T09:41:43.181Z,6.45
2024-03-11T09:44:21.069Z,5.97
2024-03-11T09:46:56.634Z,5.80
2024-03-11T09:49:24.534Z,6.45
2024-03-11T09:51:54.930Z,7.22
2024-03-11T09:54:22.406Z,6.35
2024-03-11T09:56:50.139Z,7.45
2024-03-11T09:59:20.955Z,6.07
2024-03-11T10:01:54.195Z,6.78
2024-03-11T10:04:25.139Z,7.22
2024-03-11T10:06:57.719Z,7.40
2024-03-11T10:09:29.646Z,7.18
2024-03-11T10:12:10.142Z,7.03
2024-03-11T10:14:40.360Z,5.93
2024-03-11T10:17:22.344Z,5.78
2024-03-11T10:19:55.370Z,7.25
2024-03-11T10:22:23.771Z,7.07
2024-03-11T10:24:53.533Z,7.03
2024-03-11T10:27:32.996Z,7.13
2024-03-11T10:30:20.372Z,6.93
2024-03-11T10:32:53.272Z,6.90
2024-03-11T10:35:21.802Z,7.53
2024-03-11T10:37:51.649Z,6.77
2024-03-11T10:40:22.263Z,8.13
2024-03-11T10:42:55.630Z,6.47
2024-03-11T10:45:35.258Z,8.02
2024-03-11T10:48:02.650Z,7.07
2024-03-11T10:50:35.186Z,6.97
2024-03-11T10:53:05.194Z,6.30
2024-03-11T10:55:35.006Z,6.75
2024-03-11T10:58:02.549Z,7.40
2024-03-11T11:00:36.093Z,6.68
2024-03-11T11:03:24.505Z,7.27
2024-03-11T11:06:02.976Z,6.07
2024-03-11T11:08:32.607Z,6.22
2024-03-11T11:10:59.607Z,5.05
2024-03-11T11:13:27.188Z,5.75
2024-03-11T11:15:56.062Z,6.30
2024-03-11T11:18:25.724Z,6.40
2024-03-11T11:20:53.535Z,6.95
2024-03-11T11:23:29.093Z,6.63
2024-03-11T11:25:57.572Z,7.20
2024-03-11T11:28:40.962Z,6.43
2024-03-11T11:31:29.570Z,6.30
2024-03-11T11:34:00.579Z,7.35
2024-03-11T11:36:34.326Z,6.13
2024-03-11T11:39:21.500Z,7.30
2024-03-11T11:41:53.515Z,7.03
2024-03-11T11:44:29.104Z,7.68
2024-03-11T11:47:16.650Z,6.55
2024-03-11T11:49:44.717Z,6.22
2024-03-11T11:52:17.754Z,6.03
2024-03-11T11:54:44.659Z,5.80
2024-03-11T11:57:13.351Z,6.70
2024-03-11T11:59:41.834Z,7.05
2024-03-11T12:02:22.186Z,7.22
2024-03-11T12:04:58.976Z,7.07
2024-03-11T12:07:26.493Z,7.73
2024-03-11T12:09:57.834Z,7.53
2024-03-11T12:12:35.351Z,6.85
2024-03-11T12:15:06.451Z,7.35
2024-03-11T12:17:33.964Z,6.47
2024-03-11T12:20:16.674Z,6.70
2024-03-11T12:22:43.474Z,7.15
2024-03-11T12:25:14.308Z,5.95
2024-03-11T12:27:42.538Z,6.80
2024-03-11T12:30:16.151Z,8.13
2024-03-11T12:32:42.869Z,7.53
2024-03-11T12:35:13.396Z,7.80
2024-03-11T12:37:43.891Z,7.55
2024-03-11T12:40:20.017Z,6.28
2024-03-11T12:42:48.427Z,6.60
2024-03-11T12:45:16.760Z,7.00
2024-03-11T12:47:45.111Z,7.85
2024-03-11T12:50:12.523Z,6.20
2024-03-11T12:52:42.568Z,7.53
2024-03-11T12:55:14.184Z,6.97
2024-03-11T12:57:41.011Z,6.00
2024-03-11T13:00:08.610Z,6.97
2024-03-11T13:02:38.075Z,7.07
2024-03-11T13:05:18.119Z,7.00
2024-03-11T13:07:46.025Z,5.38
2024-03-11T13:10:18.903Z,6.83
2024-03-11T13:12:45.726Z,6.85
2024-03-11T13:15:14.772Z,6.95
2024-03-11T13:17:43.129Z,5.65
2024-03-11T13:20:25.925Z,6.30
2024-03-11T13:22:52.913Z,7.07
2024-03-11T13:25:19.674Z,6.53
2024-03-11T13:27:46.443Z,6.93
2024-03-11T13:30:14.675Z,7.28
2024-03-11T13:32:41.778Z,6.53
2024-03-11T13:35:09.005Z,5.27
2024-03-11T13:37:35.810Z,6.07
2024-03-11T13:40:08.578Z,5.78
2024-03-11T13:42:37.757Z,6.35
2024-03-11T13:45:06.912Z,5.57
2024-03-11T13:47:34.070Z,5.60
2024-03-11T13:50:00.962Z,6.07
2024-03-11T13:52:27.755Z,5.03
2024-03-11T13:54:54.669Z,5.68
2024-03-11T13:57:21.461Z,5.72
2024-03-11T13:59:48.598Z,5.73
2024-03-11T14:02:15.352Z,5.38
2024-03-11T14:04:44.213Z,5.53
2024-03-11T14:07:11.108Z,5.15
2024-03-11T14:09:38.283Z,5.18
2024-03-11T14:12:08.120Z,4.17
2024-03-11T14:14:35.409Z,4.90
2024-03-11T14:17:02.240Z,4.20
2024-03-11T14:19:29.002Z,4.40
2024-03-11T14:21:55.722Z,4.55
2024-03-11T14:24:22.484Z,5.00
2024-03-11T14:26:49.326Z,3.97
2024-03-11T14:29:17.100Z,4.60
2024-03-11T14:31:46.250Z,4.45
2024-03-11T14:34:13.707Z,4.60
2024-03-11T14:36:40.450Z,4.20
2024-03-11T14:39:18.505Z,4.30
2024-03-11T14:41:46.778Z,4.78
2024-03-11T14:44:16.769Z,4.53
2024-03-11T14:46:52.612Z,4.70
2024-03-11T14:49:25.190Z,4.00
2024-03-11T14:51:55.025Z,4.75
2024-03-11T14:54:31.114Z,4.20
2024-03-11T14:56:58.304Z,4.25
2024-03-11T14:59:27.548Z,3.90
2024-03-11T15:01:57.562Z,3.97
2024-03-11T15:04:27.880Z,4.72
2024-03-11T15:06:54.854Z,4.53
2024-03-11T15:09:23.309Z,4.28
2024-03-11T15:11:50.486Z,4.20
2024-03-11T15:14:17.226Z,4.07
2024-03-11T15:16:46.831Z,3.95
2024-03-11T15:19:13.771Z,3.80
2024-03-11T15:21:40.677Z,3.60
2024-03-11T15:24:11.934Z,4.10
2024-03-11T15:26:38.776Z,4.53
2024-03-11T15:29:07.818Z,4.75
2024-03-11T15:31:35.149Z,4.35
2024-03-11T15:34:01.930Z,4.30
2024-03-11T15:36:29.160Z,4.70
2024-03-11T15:38:56.759Z,4.13
2024-03-11T15:41:27.328Z,4.30
2024-03-11T15:43:56.890Z,4.90
2024-03-11T15:46:27.384Z,5.13
2024-03-11T15:48:54.807Z,4.80
2024-03-11T15:51:22.708Z,4.67
2024-03-11T15:53:52.414Z,4.70
2024-03-11T15:56:20.261Z,5.40
2024-03-11T15:58:47.600Z,5.68
2024-03-11T16:01:15.358Z,5.45
2024-03-11T16:03:42.872Z,4.83
2024-03-11T16:06:10.767Z,5.55
2024-03-11T16:08:40.152Z,5.72
2024-03-11T16:11:07.999Z,6.20
2024-03-11T16:13:35.440Z,5.43
2024-03-11T16:16:04.494Z,5.40
2024-03-11T16:18:32.242Z,6.47
2024-03-11T16:20:59.443Z,6.13
2024-03-11T16:23:32.113Z,5.43
2024-03-11T16:25:59.851Z,6.00
2024-03-11T16:28:27.789Z,6.17
2024-03-11T16:30:54.574Z,5.75
2024-03-11T16:33:23.836Z,5.65
2024-03-11T16:35:50.806Z,5.00
2024-03-11T16:38:18.069Z,5.05
2024-03-11T16:40:46.587Z,4.97
2024-03-11T16:43:16.970Z,5.32
2024-03-11T16:45:44.092Z,4.28
2024-03-11T16:48:12.131Z,7.28
2024-03-11T16:50:45.669Z,4.55
2024-03-11T16:53:13.229Z,5.03
2024-03-11T16:55:44.126Z,4.95
2024-03-11T16:58:13.014Z,4.15
2024-03-11T17:00:40.534Z,4.45
2024-03-11T17:03:07.349Z,4.53
2024-03-11T17:05:35.307Z,5.30
2024-03-11T17:08:03.763Z,4.55
2024-03-11T17:10:34.515Z,4.90
2024-03-11T17:13:05.056Z,5.15
2024-03-11T17:15:35.729Z,5.18
2024-03-11T17:18:04.257Z,4.33
2024-03-11T17:20:40.963Z,4.70
2024-03-11T17:23:10.335Z,5.47
2024-03-11T17:25:37.678Z,6.10
2024-03-11T17:28:11.341Z,6.28
2024-03-11T17:30:41.164Z,6.97
2024-03-11T17:33:15.361Z,6.18
2024-03-11T17:35:52.413Z,5.40
2024-03-11T17:38:20.610Z,7.10
2024-03-11T17:40:50.813Z,4.85
2024-03-11T17:43:20.254Z,6.20
2024-03-11T17:45:48.074Z,4.82
2024-03-11T17:48:18.373Z,5.65
2024-03-11T17:50:45.296Z,5.95
2024-03-11T17:53:15.001Z,5.78
2024-03-11T17:55:42.783Z,5.73
2024-03-11T17:58:12.682Z,5.63
2024-03-11T18:00:41.464Z,5.70
2024-03-11T18:03:08.492Z,6.00
2024-03-11T18:05:36.570Z,5.18
2024-03-11T18:08:05.364Z,5.43
2024-03-11T18:10:35.318Z,4.72
2024-03-11T18:13:03.429Z,5.65
2024-03-11T18:15:30.519Z,4.95
2024-03-11T18:17:57.645Z,4.32
2024-03-11T18:20:26.266Z,5.60
2024-03-11T18:22:53.064Z,4.60
2024-03-11T18:25:24.283Z,4.95
2024-03-11T18:27:52.313Z,4.43
2024-03-11T18:30:21.165Z,4.00
2024-03-11T18:32:54.277Z,4.67
2024-03-11T18:35:23.038Z,4.78
2024-03-11T18:37:51.255Z,4.35
2024-03-11T18:40:19.762Z,5.45
2024-03-11T18:42:50.051Z,4.60
2024-03-11T18:45:17.416Z,4.57
2024-03-11T18:47:47.304Z,4.13
2024-03-11T18:50:15.770Z,4.80
2024-03-11T18:52:53.332Z,4.20
2024-03-11T18:55:26.436Z,4.75
2024-03-11T18:57:54.424Z,6.43
2024-03-11T19:00:28.022Z,4.85
2024-03-11T19:02:58.776Z,4.70
2024-03-11T19:05:30.752Z,5.05
2024-03-11T19:07:58.768Z,4.53
2024-03-11T19:10:32.604Z,4.43
2024-03-11T19:13:01.080Z,5.05
2024-03-11T19:15:32.340Z,5.15
2024-03-11T19:17:59.919Z,4.63
2024-03-11T19:20:28.089Z,5.28
2024-03-11T19:22:59.509Z,5.60
2024-03-11T19:25:33.498Z,5.63
2024-03-11T19:28:03.513Z,4.65
2024-03-11T19:30:33.724Z,4.47
2024-03-11T19:33:03.644Z,4.70
2024-03-11T19:35:32.272Z,4.50
2024-03-11T19:38:24.810Z,5.18
2024-03-11T19:41:14.330Z,5.40
2024-03-11T19:44:10.874Z,4.93
2024-03-11T19:46:46.417Z,4.38
2024-03-11T19:49:40.110Z,4.57
2024-03-11T19:52:45.539Z,3.83
2024-03-11T19:55:49.180Z,4.53
2024-03-11T19:59:06.512Z,4.55
2024-03-11T20:02:05.412Z,5.40
2024-03-11T20:05:11.855Z,5.37
2024-03-11T20:07:57.617Z,5.40
2024-03-11T20:10:41.993Z,5.50
2024-03-11T20:13:41.032Z,5.30
2024-03-11T20:16:27.085Z,4.75
2024-03-11T20:19:32.233Z,5.00
2024-03-11T20:22:37.920Z,4.55
2024-03-11T20:25:53.761Z,5.03
2024-03-11T20:28:44.346Z,5.22
2024-03-11T20:31:14.518Z,4.75
2024-03-11T20:33:44.303Z,4.80
2024-03-11T20:36:13.038Z,4.85
2024-03-11T20:38:41.399Z,5.47
2024-03-11T20:41:09.360Z,4.97
2024-03-11T20:43:36.205Z,4.93
2024-03-11T20:46:04.516Z,5.37
2024-03-11T20:48:31.610Z,4.70
2024-03-11T20:50:58.540Z,4.90
2024-03-11T20:53:25.463Z,4.53
2024-03-11T20:55:53.312Z,5.53
2024-03-11T20:58:23.057Z,4.53
2024-03-11T21:00:50.003Z,5.05
2024-03-11T21:03:17.669Z,4.63
2024-03-11T21:05:45.165Z,5.10
2024-03-11T21:08:12.822Z,4.68
2024-03-11T21:10:41.165Z,4.80
2024-03-11T21:13:08.419Z,4.57
2024-03-11T21:15:35.623Z,5.03
2024-03-11T21:18:06.086Z,4.40
2024-03-11T21:20:32.837Z,4.90
2024-03-11T21:23:04.746Z,4.80
2024-03-11T21:25:50.246Z,4.55
2024-03-11T21:28:18.492Z,5.13
2024-03-11T21:30:45.194Z,4.80
2024-03-11T21:33:11.964Z,4.65
2024-03-11T21:35:38.664Z,5.10
2024-03-11T21:38:13.610Z,5.45
2024-03-11T21:40:45.634Z,4.72
2024-03-11T21:43:12.404Z,4.72
2024-03-11T21:45:39.121Z,5.38
2024-03-11T21:48:06.149Z,4.80
2024-03-11T21:50:33.195Z,4.50
2024-03-11T21:52:59.950Z,5.30
2024-03-11T21:55:26.824Z,4.72
2024-03-11T21:57:53.647Z,5.13
2024-03-11T22:00:21.909Z,5.40
2024-03-11T22:02:48.777Z,4.53
2024-03-11T22:05:15.588Z,5.50
2024-03-11T22:07:42.276Z,4.78
2024-03-11T22:10:14.667Z,6.47
2024-03-11T22:12:41.446Z,5.50
2024-03-11T22:15:08.722Z,5.55
2024-03-11T22:17:35.829Z,5.70
2024-03-11T22:20:05.797Z,5.63
2024-03-11T22:22:32.483Z,5.68
2024-03-11T22:24:59.194Z,5.90
2024-03-11T22:27:25.908Z,6.13
2024-03-11T22:29:53.765Z,5.25
2024-03-11T22:32:21.050Z,5.10
2024-03-11T22:34:48.944Z,5.35
2024-03-11T22:37:16.200Z,5.57
2024-03-11T22:39:42.868Z,4.90
2024-03-11T22:42:10.871Z,5.80
2024-03-11T22:44:38.638Z,6.18
2024-03-11T22:47:05.755Z,5.68
2024-03-11T22:49:32.531Z,6.13
2024-03-11T22:51:59.360Z,5.68
2024-03-11T22:54:26.285Z,6.32
2024-03-11T22:57:14.531Z,6.43
2024-03-11T22:59:41.227Z,5.90
2024-03-11T23:02:28.450Z,5.70
2024-03-11T23:04:55.508Z,6.50
2024-03-11T23:07:23.847Z,6.35
2024-03-11T23:09:50.636Z,5.55
2024-03-11T23:12:17.399Z,6.03
2024-03-11T23:14:44.345Z,6.40
2024-03-11T23:17:14.684Z,6.85
2024-03-11T23:19:44.941Z,6.18
2024-03-11T23:22:13.868Z,6.15
2024-03-11T23:24:42.037Z,6.35
2024-03-11T23:27:11.888Z,7.13
2024-03-11T23:29:38.807Z,5.80
2024-03-11T23:32:08.126Z,7.10
2024-03-11T23:34:35.024Z,6.60
2024-03-11T23:37:01.810Z,6.45
2024-03-11T23:39:28.829Z,6.27
2024-03-11T23:41:55.891Z,6.40
2024-03-11T23:44:22.814Z,6.72
2024-03-11T23:46:49.549Z,6.15
2024-03-11T23:49:17.292Z,6.63
2024-03-11T23:51:46.425Z,6.77
2024-03-11T23:54:13.625Z,6.22
2024-03-11T23:56:44.177Z,6.30
2024-03-11T23:59:13.051Z,6.13
